Time;durP1;ratioP1;P1;durP2;ratioP2;P2;SDS_P1;SDS_P2;PMS_P1;PMS_P2;Temp;Humidity;BMP_temperature;BMP_pressure;BME280_temperature;BME280_humidity;BME280_pressure;Samples;Min_cycle;Max_cycle;Signal;HPM_P1;HPM_P2
2023/09/23 00:02:21;;;;;;;1.30;1.20;;;13.50;89.30;;;;;;5111851;28;20016;-29
2023/09/23 00:04:47;;;;;;;1.95;1.40;;;13.40;89.30;;;;;;5111819;28;20028;-28
2023/09/23 00:07:12;;;;;;;1.27;1.17;;;13.40;89.30;;;;;;5111846;28;20315;-28
2023/09/23 00:09:39;;;;;;;1.40;1.30;;;13.40;89.30;;;;;;5114201;28;20031;-29
2023/09/23 00:12:06;;;;;;;2.10;1.30;;;13.30;89.30;;;;;;5115498;28;20032;-28
2023/09/23 00:14:31;;;;;;;1.60;1.50;;;13.30;89.30;;;;;;5115251;28;20043;-30
2023/09/23 00:16:58;;;;;;;2.25;1.30;;;13.30;89.30;;;;;;5115092;28;20032;-28
2023/09/23 00:19:24;;;;;;;1.63;1.25;;;13.30;89.40;;;;;;5115192;28;20020;-29
2023/09/23 00:21:51;;;;;;;1.55;1.30;;;13.30;89.50;;;;;;5115443;28;20031;-28
2023/09/23 00:24:17;;;;;;;1.40;1.20;;;13.30;89.50;;;;;;5114855;28;20454;-28
2023/09/23 00:26:43;;;;;;;1.40;1.30;;;13.20;89.40;;;;;;5115305;28;20385;-30
2023/09/23 00:29:10;;;;;;;1.60;1.10;;;13.20;89.40;;;;;;5114794;28;20047;-26
2023/09/23 00:31:36;;;;;;;1.83;1.23;;;13.20;89.40;;;;;;5114909;28;20032;-29
2023/09/23 00:34:02;;;;;;;2.75;1.20;;;13.20;89.40;;;;;;5114899;28;20038;-27
2023/09/23 00:36:28;;;;;;;1.88;1.08;;;13.10;89.40;;;;;;5114982;28;20042;-30
2023/09/23 00:38:55;;;;;;;2.55;1.10;;;13.10;89.40;;;;;;5114951;28;20106;-27
2023/09/23 00:41:21;;;;;;;2.08;1.13;;;13.10;89.40;;;;;;5114961;28;20023;-28
2023/09/23 00:43:48;;;;;;;1.38;1.00;;;13.10;89.50;;;;;;5115013;28;20024;-28
2023/09/23 00:46:16;;;;;;;1.50;1.20;;;13.10;89.50;;;;;;5114873;28;20031;-29
2023/09/23 00:48:44;;;;;;;1.27;0.90;;;13.00;89.40;;;;;;5114893;28;20027;-27
2023/09/23 00:51:11;;;;;;;1.73;1.15;;;13.00;89.30;;;;;;5114823;28;20517;-27
2023/09/23 00:53:40;;;;;;;1.45;1.20;;;13.00;89.40;;;;;;5114662;28;20028;-27
2023/09/23 00:56:08;;;;;;;1.63;1.30;;;12.90;89.40;;;;;;5114357;28;20031;-27
2023/09/23 00:58:37;;;;;;;2.78;1.58;;;12.90;89.40;;;;;;5114330;28;20031;-35
2023/09/23 01:01:05;;;;;;;2.05;1.48;;;12.90;89.30;;;;;;5114405;28;20384;-29
2023/09/23 01:03:31;;;;;;;2.40;1.48;;;12.90;89.30;;;;;;5113871;28;20028;-33
2023/09/23 01:06:37;;;;;;;1.33;1.23;;;12.90;89.40;;;;;;5114464;28;20109;-32
2023/09/23 01:08:57;;;;;;;3.33;1.67;;;12.90;89.30;;;;;;5109871;28;20390;-28
2023/09/23 01:11:25;;;;;;;2.08;1.60;;;13.00;89.20;;;;;;5114494;28;20023;-33
2023/09/23 01:13:52;;;;;;;1.55;1.45;;;13.00;89.10;;;;;;5114102;28;20032;-28
2023/09/23 01:16:18;;;;;;;1.60;1.45;;;13.00;89.00;;;;;;5113936;28;20034;-28
2023/09/23 01:18:46;;;;;;;2.20;1.85;;;13.00;88.90;;;;;;5113926;28;20306;-27
2023/09/23 01:21:12;;;;;;;4.00;1.77;;;13.00;88.90;;;;;;5114146;28;20034;-29
2023/09/23 01:23:38;;;;;;;1.92;1.60;;;13.00;88.90;;;;;;5114031;28;20065;-37
2023/09/23 01:26:04;;;;;;;2.50;1.95;;;13.00;88.90;;;;;;5114066;28;20027;-29
2023/09/23 01:28:32;;;;;;;3.00;2.10;;;12.90;89.00;;;;;;5113674;28;20454;-33
2023/09/23 01:30:59;;;;;;;3.15;2.30;;;12.90;89.00;;;;;;5113752;28;20028;-31
2023/09/23 01:33:26;;;;;;;4.00;2.47;;;12.90;89.00;;;;;;5113994;28;20020;-29
2023/09/23 01:35:55;;;;;;;3.45;2.70;;;12.90;89.00;;;;;;5113806;28;20035;-31
2023/09/23 01:38:21;;;;;;;3.65;3.15;;;12.90;89.00;;;;;;5113838;28;20024;-28
2023/09/23 01:40:47;;;;;;;3.75;3.33;;;12.90;88.90;;;;;;5113570;28;20406;-27
2023/09/23 01:43:12;;;;;;;3.63;3.20;;;12.90;88.90;;;;;;5113762;28;20023;-29
2023/09/23 01:45:38;;;;;;;4.10;3.70;;;12.90;89.00;;;;;;5113310;28;20027;-27
2023/09/23 01:48:04;;;;;;;4.65;3.83;;;12.90;89.00;;;;;;5113564;28;20327;-30
2023/09/23 01:50:29;;;;;;;5.22;4.28;;;12.90;88.90;;;;;;5113270;28;20035;-27
2023/09/23 01:53:00;;;;;;;4.90;4.13;;;12.90;88.90;;;;;;5113370;28;20420;-29
2023/09/23 01:55:27;;;;;;;4.32;3.90;;;13.00;88.90;;;;;;5113269;28;20024;-28
2023/09/23 01:57:52;;;;;;;5.82;4.60;;;13.00;88.90;;;;;;5113268;28;20032;-31
2023/09/23 02:00:21;;;;;;;5.30;4.35;;;13.00;88.90;;;;;;5113345;28;20035;-27
2023/09/23 02:02:48;;;;;;;5.47;4.70;;;13.00;88.80;;;;;;5113394;28;20023;-32
2023/09/23 02:05:15;;;;;;;6.60;5.03;;;13.00;88.90;;;;;;5113316;28;20449;-30
2023/09/23 02:07:41;;;;;;;6.35;5.75;;;13.00;88.80;;;;;;5113463;28;20570;-27
2023/09/23 02:10:14;;;;;;;6.25;5.63;;;13.10;88.80;;;;;;5113090;28;20070;-28
2023/09/23 02:12:44;;;;;;;5.95;5.28;;;13.10;88.80;;;;;;5113340;28;20055;-30
2023/09/23 02:15:10;;;;;;;6.90;6.20;;;13.10;88.80;;;;;;5112897;28;20085;-32
2023/09/23 02:17:36;;;;;;;7.03;6.15;;;13.10;88.80;;;;;;5113083;28;20024;-33
2023/09/23 02:20:17;;;;;;;6.70;6.05;;;13.20;88.70;;;;;;5112948;28;20020;-28
2023/09/23 02:22:43;;;;;;;7.50;6.57;;;13.20;88.70;;;;;;5113015;28;20023;-29
2023/09/23 02:25:12;;;;;;;8.93;7.00;;;13.20;88.60;;;;;;5113127;28;20350;-28
2023/09/23 02:27:44;;;;;;;10.23;7.72;;;13.20;88.60;;;;;;5112591;28;20390;-29
2023/09/23 02:30:11;;;;;;;8.48;7.68;;;13.20;88.60;;;;;;5112854;28;20098;-27
2023/09/23 02:32:42;;;;;;;8.93;7.60;;;13.20;88.60;;;;;;5112007;28;20027;-30
2023/09/23 02:35:12;;;;;;;9.50;7.95;;;13.20;88.60;;;;;;5112708;28;20032;-28
2023/09/23 02:37:41;;;;;;;9.27;8.35;;;13.20;88.60;;;;;;5112680;28;20422;-27
2023/09/23 02:40:11;;;;;;;9.23;7.70;;;13.30;88.60;;;;;;5112571;28;20449;-29
2023/09/23 02:42:38;;;;;;;12.07;8.77;;;13.30;88.70;;;;;;5112733;28;20575;-30
2023/09/23 02:45:05;;;;;;;10.60;8.98;;;13.30;88.60;;;;;;5112501;28;20020;-30
2023/09/23 02:47:31;;;;;;;10.35;9.05;;;13.30;88.70;;;;;;5112466;28;20023;-28
2023/09/23 02:49:57;;;;;;;11.00;9.90;;;13.30;88.80;;;;;;5112110;28;20043;-33
2023/09/23 02:52:22;;;;;;;11.27;9.90;;;13.30;88.70;;;;;;5112318;28;20042;-30
2023/09/23 02:54:50;;;;;;;11.88;9.65;;;13.30;88.70;;;;;;5111953;28;20109;-28
2023/09/23 02:57:15;;;;;;;11.85;10.45;;;13.30;88.70;;;;;;5093792;28;20023;-28
2023/09/23 02:59:46;;;;;;;9.98;8.98;;;13.30;88.80;;;;;;5112008;28;20023;-35
2023/09/23 03:02:20;;;;;;;13.68;10.75;;;13.30;88.70;;;;;;5112147;28;20024;-28
2023/09/23 03:04:45;;;;;;;;;;;13.30;88.70;;;;;;5112626;28;20050;-29
2023/09/23 03:07:12;;;;;;;11.63;9.52;;;13.40;88.80;;;;;;5112337;28;20420;-32
2023/09/23 03:09:43;;;;;;;10.95;9.82;;;13.40;88.70;;;;;;5111939;28;20106;-28
2023/09/23 03:12:09;;;;;;;11.52;9.52;;;13.40;88.70;;;;;;5112185;28;20054;-30
2023/09/23 03:14:42;;;;;;;14.02;10.30;;;13.40;88.80;;;;;;5112009;28;20473;-29
2023/09/23 03:17:09;;;;;;;12.98;10.63;;;13.40;88.80;;;;;;5112186;28;20469;-29
2023/09/23 03:19:35;;;;;;;10.70;9.60;;;13.40;88.80;;;;;;5112054;28;20058;-29
2023/09/23 03:22:01;;;;;;;12.82;9.65;;;13.40;88.90;;;;;;5111935;28;20027;-31
2023/09/23 03:24:29;;;;;;;12.20;10.15;;;13.40;89.50;;;;;;5111749;28;20092;-27
2023/09/23 03:26:58;;;;;;;12.43;9.82;;;13.40;89.50;;;;;;5112187;28;20083;-30
2023/09/23 03:29:32;;;;;;;11.32;9.57;;;13.40;88.90;;;;;;5111660;28;20153;-29
2023/09/23 03:31:59;;;;;;;11.80;9.85;;;13.40;88.90;;;;;;5112314;28;20074;-30
2023/09/23 03:34:26;;;;;;;11.63;9.32;;;13.40;88.90;;;;;;5112100;28;20055;-30
2023/09/23 03:36:53;;;;;;;15.25;9.68;;;13.40;88.90;;;;;;5111706;28;20161;-32
2023/09/23 03:39:19;;;;;;;12.95;10.00;;;13.40;88.90;;;;;;5111640;28;20024;-32
2023/09/23 03:41:46;;;;;;;14.13;9.98;;;13.40;88.80;;;;;;5111696;28;20499;-29
2023/09/23 03:44:16;;;;;;;12.10;9.45;;;13.40;88.90;;;;;;5114187;28;20381;-27
2023/09/23 03:46:50;;;;;;;11.45;10.25;;;13.40;88.90;;;;;;5115583;28;20023;-31
2023/09/23 03:49:20;;;;;;;12.48;10.90;;;13.40;88.90;;;;;;5115501;28;20031;-35
2023/09/23 03:51:46;;;;;;;13.32;10.68;;;13.40;88.90;;;;;;5116047;28;20027;-28
2023/09/23 03:54:11;;;;;;;13.90;9.77;;;13.40;88.90;;;;;;5115424;28;20451;-34
2023/09/23 03:56:40;;;;;;;12.60;10.70;;;13.50;88.90;;;;;;5115269;28;20030;-28
2023/09/23 03:59:05;;;;;;;12.23;10.05;;;13.50;88.90;;;;;;5115761;28;20585;-32
2023/09/23 04:01:32;;;;;;;11.07;9.60;;;13.50;88.90;;;;;;5115816;28;20023;-32
2023/09/23 04:03:57;;;;;;;11.57;10.38;;;13.50;88.90;;;;;;5115477;28;20031;-28
2023/09/23 04:06:23;;;;;;;13.98;10.48;;;13.50;88.90;;;;;;5115459;28;20050;-30
2023/09/23 04:08:49;;;;;;;11.88;10.55;;;13.50;88.90;;;;;;5115090;28;20031;-28
2023/09/23 04:11:15;;;;;;;12.90;11.18;;;13.50;88.90;;;;;;5115561;28;20028;-31
2023/09/23 04:13:42;;;;;;;15.00;11.38;;;13.40;88.90;;;;;;5115632;28;20084;-31
2023/09/23 04:16:09;;;;;;;15.00;10.48;;;13.40;88.90;;;;;;5115207;28;20027;-31
2023/09/23 04:18:34;;;;;;;11.77;9.93;;;13.40;89.00;;;;;;5115339;28;20493;-28
2023/09/23 04:21:01;;;;;;;12.45;10.30;;;13.40;89.00;;;;;;5115083;28;20434;-37
2023/09/23 04:23:26;;;;;;;12.60;11.13;;;13.40;89.00;;;;;;5114983;28;20460;-29
2023/09/23 04:25:52;;;;;;;12.65;10.52;;;13.40;89.00;;;;;;5115346;28;20043;-36
2023/09/23 04:28:18;;;;;;;12.65;10.70;;;13.40;89.00;;;;;;5114862;28;20036;-31
2023/09/23 04:30:45;;;;;;;13.93;10.82;;;13.40;89.00;;;;;;5115187;28;20027;-29
2023/09/23 04:33:12;;;;;;;13.10;10.75;;;13.40;89.00;;;;;;5114818;28;20031;-37
2023/09/23 04:35:38;;;;;;;12.73;10.88;;;13.40;89.10;;;;;;5115277;28;20591;-32
2023/09/23 04:38:03;;;;;;;14.77;11.10;;;13.30;89.00;;;;;;5115058;28;20444;-28
2023/09/23 04:40:29;;;;;;;14.32;11.05;;;13.30;89.10;;;;;;5114595;28;20038;-31
2023/09/23 04:42:55;;;;;;;13.13;11.15;;;13.30;89.10;;;;;;5115127;28;20023;-35
2023/09/23 04:45:20;;;;;;;13.35;10.85;;;13.30;89.10;;;;;;5114843;28;20714;-30
2023/09/23 04:47:50;;;;;;;14.48;12.02;;;13.30;89.20;;;;;;5114512;28;20501;-28
2023/09/23 04:50:17;;;;;;;13.15;10.95;;;13.30;89.20;;;;;;5114666;28;20028;-34
2023/09/23 04:52:44;;;;;;;13.10;11.57;;;13.40;89.20;;;;;;5114903;28;20032;-31
2023/09/23 04:55:09;;;;;;;13.88;10.98;;;13.40;89.10;;;;;;5114055;28;20035;-32
2023/09/23 04:57:36;;;;;;;17.65;11.65;;;13.40;89.10;;;;;;5114768;28;20491;-32
2023/09/23 05:00:03;;;;;;;12.77;10.88;;;13.40;89.10;;;;;;5114246;28;20024;-28
2023/09/23 05:02:30;;;;;;;14.13;11.27;;;13.40;89.20;;;;;;5114544;28;20028;-31
2023/09/23 05:04:55;;;;;;;14.52;11.25;;;13.40;89.20;;;;;;5114564;28;20032;-34
2023/09/23 05:07:25;;;;;;;11.82;10.43;;;13.30;89.00;;;;;;5114214;28;20024;-30
2023/09/23 05:09:51;;;;;;;13.40;11.27;;;13.40;89.10;;;;;;5114650;28;20031;-34
2023/09/23 05:12:20;;;;;;;11.43;10.18;;;13.30;89.10;;;;;;5113992;28;20039;-31
2023/09/23 05:14:46;;;;;;;12.20;10.05;;;13.40;89.10;;;;;;5114418;28;20020;-29
2023/09/23 05:17:15;;;;;;;12.38;10.30;;;13.40;89.10;;;;;;5114292;28;20028;-29
2023/09/23 05:19:47;;;;;;;12.20;9.75;;;13.40;89.10;;;;;;5113692;28;20035;-31
2023/09/23 05:22:12;;;;;;;12.25;9.50;;;13.40;89.10;;;;;;5113901;28;20032;-36
2023/09/23 05:24:38;;;;;;;13.88;10.93;;;13.40;89.00;;;;;;5113805;28;20030;-31
2023/09/23 05:27:04;;;;;;;12.40;10.15;;;13.40;89.00;;;;;;5113930;28;20388;-29
2023/09/23 05:29:30;;;;;;;13.48;10.20;;;13.30;89.10;;;;;;5113941;28;20396;-31
2023/09/23 05:31:56;;;;;;;12.57;10.23;;;13.40;89.20;;;;;;5113823;28;20063;-35
2023/09/23 05:34:21;;;;;;;11.93;9.55;;;13.40;89.20;;;;;;5113987;28;20412;-31
2023/09/23 05:36:47;;;;;;;11.55;10.30;;;13.40;89.20;;;;;;5113664;28;20498;-30
2023/09/23 05:39:18;;;;;;;14.07;9.63;;;13.40;89.10;;;;;;5113424;28;20020;-27
2023/09/23 05:41:44;;;;;;;11.80;9.02;;;13.40;89.10;;;;;;5113583;28;20496;-31
2023/09/23 05:44:12;;;;;;;11.23;9.07;;;13.40;89.10;;;;;;5113663;28;20419;-28
2023/09/23 05:46:38;;;;;;;11.90;8.57;;;13.40;89.10;;;;;;5113387;28;20072;-32
2023/09/23 05:49:05;;;;;;;11.77;9.00;;;13.40;89.10;;;;;;5113487;28;20414;-30
2023/09/23 05:51:33;;;;;;;10.10;9.10;;;13.30;89.00;;;;;;5113352;28;20047;-30
2023/09/23 05:54:00;;;;;;;9.35;8.10;;;13.40;89.20;;;;;;5113068;28;20526;-28
2023/09/23 05:56:25;;;;;;;9.50;7.90;;;13.40;89.20;;;;;;5113228;28;20038;-30
2023/09/23 05:58:51;;;;;;;13.23;8.15;;;13.40;89.10;;;;;;5113096;28;20027;-29
2023/09/23 06:01:16;;;;;;;9.20;7.18;;;13.40;89.00;;;;;;5113033;28;20039;-29
2023/09/23 06:03:42;;;;;;;13.38;7.45;;;13.40;89.00;;;;;;5113123;28;20032;-28
2023/09/23 06:06:09;;;;;;;7.53;6.72;;;13.40;89.00;;;;;;5112359;28;20134;-37
2023/09/23 06:08:35;;;;;;;7.70;6.45;;;13.40;89.10;;;;;;5112909;28;20059;-30
2023/09/23 06:11:04;;;;;;;7.95;5.97;;;13.40;89.00;;;;;;5094506;28;20035;-27
2023/09/23 06:13:31;;;;;;;10.82;6.55;;;13.40;89.00;;;;;;5113116;28;20028;-29
2023/09/23 06:16:05;;;;;;;9.23;5.78;;;13.50;88.90;;;;;;5113076;28;20439;-31
2023/09/23 06:18:33;;;;;;;10.07;5.88;;;13.40;88.80;;;;;;5112623;28;20032;-31
2023/09/23 06:21:03;;;;;;;7.72;5.65;;;13.40;88.80;;;;;;5112661;28;20484;-28
2023/09/23 06:23:28;;;;;;;7.10;6.03;;;13.50;89.50;;;;;;5112622;28;20418;-34
2023/09/23 06:25:56;;;;;;;8.00;5.85;;;13.50;88.80;;;;;;5113044;28;20092;-37
2023/09/23 06:28:22;;;;;;;7.13;5.25;;;13.50;89.30;;;;;;5112350;28;20079;-27
2023/09/23 06:30:48;;;;;;;8.95;6.22;;;13.50;88.60;;;;;;5112316;28;20023;-28
2023/09/23 06:33:13;;;;;;;8.30;5.57;;;13.50;88.60;;;;;;5112796;28;20038;-28
2023/09/23 06:35:39;;;;;;;8.13;5.82;;;13.50;88.60;;;;;;5112510;28;20028;-33
2023/09/23 06:38:04;;;;;;;7.47;6.03;;;13.50;88.50;;;;;;5112737;28;20031;-37
2023/09/23 06:40:30;;;;;;;9.10;6.03;;;13.50;88.60;;;;;;5112303;28;20020;-29
2023/09/23 06:42:55;;;;;;;7.90;6.05;;;13.60;88.60;;;;;;5094122;28;20054;-29
2023/09/23 06:45:21;;;;;;;9.40;5.72;;;13.60;88.60;;;;;;5112208;28;20022;-28
2023/09/23 06:47:47;;;;;;;9.70;6.60;;;13.60;88.40;;;;;;5112172;28;20030;-30
2023/09/23 06:50:12;;;;;;;8.35;6.25;;;13.60;88.40;;;;;;5112347;28;20102;-29
2023/09/23 06:52:38;;;;;;;8.45;5.93;;;13.60;88.30;;;;;;5112359;28;20028;-38
2023/09/23 06:55:04;;;;;;;11.05;6.90;;;13.60;88.20;;;;;;5112309;28;20106;-28
2023/09/23 06:57:29;;;;;;;9.77;6.82;;;13.60;88.20;;;;;;5093628;28;20019;-29
2023/09/23 06:59:55;;;;;;;10.05;6.30;;;13.60;88.20;;;;;;5112057;28;20032;-31
2023/09/23 07:02:21;;;;;;;6.72;5.72;;;13.70;88.30;;;;;;5112008;28;20096;-29
2023/09/23 07:04:47;;;;;;;7.80;6.15;;;13.70;88.30;;;;;;5112089;28;20081;-30
2023/09/23 07:07:13;;;;;;;7.28;5.95;;;13.70;88.30;;;;;;5112039;28;20509;-28
2023/09/23 07:09:38;;;;;;;7.97;5.90;;;13.70;88.20;;;;;;5111769;28;20027;-28
2023/09/23 07:12:04;;;;;;;8.13;5.82;;;13.70;88.10;;;;;;5111914;28;20501;-33
2023/09/23 07:14:31;;;;;;;7.05;6.28;;;13.80;88.10;;;;;;5112145;28;20026;-27
2023/09/23 07:16:56;;;;;;;7.68;6.10;;;13.80;88.10;;;;;;5111625;28;20078;-28
2023/09/23 07:19:22;;;;;;;7.82;5.97;;;13.80;88.10;;;;;;5111384;28;20556;-30
2023/09/23 07:21:47;;;;;;;8.90;6.22;;;13.80;88.10;;;;;;5111907;28;20019;-28
2023/09/23 07:24:13;;;;;;;6.15;5.43;;;13.90;88.10;;;;;;5111705;28;20027;-27
2023/09/23 07:26:38;;;;;;;9.02;6.15;;;14.00;88.00;;;;;;5111861;28;20396;-30
2023/09/23 07:29:04;;;;;;;7.93;5.90;;;14.00;87.90;;;;;;5111526;28;20404;-32
2023/09/23 07:31:30;;;;;;;7.53;5.70;;;14.00;87.80;;;;;;5111728;28;20027;-32
2023/09/23 07:33:55;;;;;;;6.25;5.22;;;14.10;87.80;;;;;;5111778;28;20050;-38
2023/09/23 07:36:21;;;;;;;5.78;5.10;;;14.10;87.80;;;;;;5111737;28;20026;-30
2023/09/23 07:38:47;;;;;;;10.27;5.68;;;14.10;87.80;;;;;;5111690;28;20056;-31
2023/09/23 07:41:12;;;;;;;6.57;5.05;;;14.20;87.70;;;;;;5111762;28;20530;-31
2023/09/23 07:43:39;;;;;;;10.38;5.28;;;14.20;87.60;;;;;;5111704;28;20028;-30
2023/09/23 07:46:05;;;;;;;7.70;5.00;;;14.20;87.40;;;;;;5111956;28;20028;-34
2023/09/23 07:48:31;;;;;;;6.72;5.45;;;14.20;87.30;;;;;;5111485;28;20028;-34
2023/09/23 07:50:56;;;;;;;7.13;5.57;;;14.20;87.30;;;;;;5111635;28;20022;-32
2023/09/23 07:53:22;;;;;;;7.97;5.75;;;14.20;87.30;;;;;;5111383;28;20114;-35
2023/09/23 07:55:48;;;;;;;6.03;4.65;;;14.20;87.10;;;;;;5111651;28;20028;-31
2023/09/23 07:58:14;;;;;;;7.72;4.80;;;14.20;87.20;;;;;;5111531;28;20027;-31
2023/09/23 08:00:39;;;;;;;7.45;4.80;;;14.20;87.20;;;;;;5111409;28;20020;-31
2023/09/23 08:03:05;;;;;;;6.13;4.65;;;14.20;87.20;;;;;;5111614;28;20023;-27
2023/09/23 08:05:32;;;;;;;7.15;4.78;;;14.30;87.30;;;;;;5111530;28;20027;-32
2023/09/23 08:07:57;;;;;;;5.95;4.60;;;14.30;87.10;;;;;;5111447;28;20532;-34
2023/09/23 08:10:24;;;;;;;5.88;4.40;;;14.30;87.10;;;;;;5111049;28;20059;-28
2023/09/23 08:12:49;;;;;;;5.65;4.18;;;14.40;87.10;;;;;;5111306;28;20410;-31
2023/09/23 08:15:15;;;;;;;6.43;4.40;;;14.50;87.00;;;;;;5111295;28;20031;-32
2023/09/23 08:17:41;;;;;;;8.52;4.38;;;14.60;86.90;;;;;;5111255;28;20457;-35
2023/09/23 08:20:17;;;;;;;6.07;4.50;;;14.70;86.70;;;;;;5111166;28;20481;-28
2023/09/23 08:22:45;;;;;;;5.13;3.83;;;14.70;86.50;;;;;;5111357;28;20123;-29
2023/09/23 08:25:11;;;;;;;5.97;3.97;;;14.80;86.50;;;;;;5111369;28;20439;-32
2023/09/23 08:27:37;;;;;;;5.30;3.90;;;14.90;86.40;;;;;;5111224;28;20044;-29
2023/09/23 08:30:05;;;;;;;4.95;3.80;;;15.00;86.20;;;;;;5112588;28;20031;-35
2023/09/23 08:32:31;;;;;;;5.45;3.85;;;15.00;86.10;;;;;;5114985;28;20103;-32
2023/09/23 08:34:56;;;;;;;7.18;3.85;;;15.10;86.00;;;;;;5114946;28;20107;-34
2023/09/23 08:37:22;;;;;;;6.85;4.05;;;15.20;85.90;;;;;;5114777;28;20085;-31
2023/09/23 08:39:48;;;;;;;7.32;3.22;;;15.30;85.60;;;;;;5114637;28;20474;-41
2023/09/23 08:42:18;;;;;;;4.75;3.30;;;15.40;85.40;;;;;;5114784;28;20051;-30
2023/09/23 08:44:43;;;;;;;6.05;3.30;;;15.50;85.40;;;;;;5114702;28;20028;-34
2023/09/23 08:47:10;;;;;;;4.65;3.45;;;15.50;85.10;;;;;;5096247;28;20051;-31
2023/09/23 08:49:37;;;;;;;4.93;3.35;;;15.50;84.80;;;;;;5096458;28;20420;-31
2023/09/23 08:52:04;;;;;;;5.57;2.95;;;15.50;84.90;;;;;;5114824;28;20377;-30
2023/09/23 08:54:31;;;;;;;4.28;2.97;;;15.50;85.00;;;;;;5114359;28;20058;-35
2023/09/23 08:56:58;;;;;;;5.85;3.50;;;15.60;85.00;;;;;;5114698;28;20084;-33
2023/09/23 08:59:26;;;;;;;5.80;3.22;;;15.60;84.70;;;;;;5114434;28;20026;-33
2023/09/23 09:01:52;;;;;;;4.38;2.97;;;15.60;84.80;;;;;;5114242;28;20027;-34
2023/09/23 09:04:17;;;;;;;6.85;3.65;;;15.60;84.80;;;;;;5114234;28;20026;-31
2023/09/23 09:06:53;;;;;;;6.05;2.90;;;15.60;84.70;;;;;;5114424;28;20469;-32
2023/09/23 09:09:19;;;;;;;4.70;3.30;;;15.60;84.70;;;;;;5114102;28;20027;-36
2023/09/23 09:11:50;;;;;;;4.63;3.13;;;15.60;84.60;;;;;;5114163;28;20024;-29
2023/09/23 09:14:16;;;;;;;3.35;2.72;;;15.60;84.50;;;;;;5095841;28;20511;-30
2023/09/23 09:16:42;;;;;;;4.38;2.53;;;15.70;84.50;;;;;;5113973;28;20023;-32
2023/09/23 09:19:07;;;;;;;7.30;3.20;;;15.80;84.40;;;;;;5095503;28;20039;-29
2023/09/23 09:21:34;;;;;;;5.85;3.05;;;15.90;84.20;;;;;;5114195;28;20045;-30
2023/09/23 09:24:02;;;;;;;4.03;3.20;;;15.90;84.00;;;;;;5114013;28;20444;-33
2023/09/23 09:26:28;;;;;;;3.90;3.13;;;15.90;83.80;;;;;;5114220;28;20469;-31
2023/09/23 09:28:53;;;;;;;4.43;3.20;;;15.80;83.80;;;;;;5113567;28;20135;-29
2023/09/23 09:31:20;;;;;;;6.10;3.35;;;15.70;84.00;;;;;;5114091;28;20379;-33
2023/09/23 09:33:50;;;;;;;4.15;2.88;;;15.60;84.20;;;;;;5095571;28;20092;-30
2023/09/23 09:36:23;;;;;;;8.40;3.13;;;15.50;84.50;;;;;;5113830;28;20445;-30
2023/09/23 09:38:54;;;;;;;4.18;2.92;;;15.50;84.90;;;;;;5113779;28;20055;-28
2023/09/23 09:41:29;;;;;;;7.38;3.08;;;15.40;85.10;;;;;;5113516;28;20043;-34
2023/09/23 09:43:57;;;;;;;7.47;3.72;;;15.50;85.30;;;;;;5095703;28;20046;-31
2023/09/23 09:46:24;;;;;;;6.85;2.67;;;15.50;85.20;;;;;;5095346;28;20023;-32
2023/09/23 09:48:50;;;;;;;6.22;2.90;;;15.50;85.30;;;;;;5113298;28;20069;-32
2023/09/23 09:51:17;;;;;;;5.85;2.95;;;15.50;85.30;;;;;;5113450;28;20443;-29
2023/09/23 09:53:45;;;;;;;2.80;2.08;;;15.50;85.30;;;;;;5113318;28;20023;-30
2023/09/23 09:56:11;;;;;;;4.75;2.67;;;15.50;85.30;;;;;;5113621;28;20312;-28
2023/09/23 09:58:38;;;;;;;3.50;2.40;;;15.50;85.30;;;;;;5113473;28;20028;-30
2023/09/23 10:01:08;;;;;;;4.15;2.80;;;15.60;85.40;;;;;;5113151;28;20465;-33
2023/09/23 10:03:36;;;;;;;5.35;2.95;;;15.60;85.40;;;;;;5113306;28;20011;-31
2023/09/23 10:06:02;;;;;;;7.63;3.00;;;15.60;85.40;;;;;;5113440;28;20023;-31
2023/09/23 10:08:36;;;;;;;4.35;2.83;;;15.60;85.50;;;;;;5113138;28;20020;-32
2023/09/23 10:11:04;;;;;;;4.40;2.55;;;15.60;85.50;;;;;;5112943;28;20446;-31
2023/09/23 10:13:31;;;;;;;3.97;2.47;;;15.70;85.60;;;;;;5113212;28;20020;-30
2023/09/23 10:16:04;;;;;;;3.40;2.10;;;15.70;85.50;;;;;;5094584;28;20035;-32
2023/09/23 10:18:35;;;;;;;4.53;2.92;;;15.80;85.60;;;;;;5112726;28;20459;-31
2023/09/23 10:21:02;;;;;;;4.80;2.65;;;15.90;85.50;;;;;;5113005;28;20019;-32
2023/09/23 10:23:39;;;;;;;5.63;2.80;;;15.90;85.50;;;;;;5112713;28;20020;-29
2023/09/23 10:26:19;;;;;;;4.50;2.67;;;16.00;85.40;;;;;;5112604;28;20020;-29
2023/09/23 10:28:58;;;;;;;6.20;2.97;;;16.00;85.50;;;;;;5112542;28;20070;-32
2023/09/23 10:31:28;;;;;;;6.28;2.65;;;16.10;85.60;;;;;;5112622;28;20016;-34
2023/09/23 10:33:55;;;;;;;5.07;2.90;;;16.10;85.50;;;;;;5112881;28;20147;-37
2023/09/23 10:36:21;;;;;;;5.43;2.75;;;16.30;85.50;;;;;;5112591;28;20438;-33
2023/09/23 10:38:47;;;;;;;3.58;2.55;;;16.30;85.30;;;;;;5112415;28;20024;-32
2023/09/23 10:41:13;;;;;;;4.10;2.53;;;16.30;85.20;;;;;;5112620;28;20098;-31
2023/09/23 10:43:38;;;;;;;3.40;2.50;;;16.40;85.20;;;;;;5112503;28;20018;-30
2023/09/23 10:46:05;;;;;;;5.75;2.65;;;16.40;84.90;;;;;;5112207;28;20031;-29
2023/09/23 10:48:31;;;;;;;4.93;2.65;;;16.40;84.80;;;;;;5112065;28;20015;-34
2023/09/23 10:51:01;;;;;;;4.50;2.83;;;16.50;84.70;;;;;;5112559;28;20069;-34
2023/09/23 10:53:30;;;;;;;6.10;2.90;;;16.50;84.40;;;;;;5111581;28;20062;-29
2023/09/23 10:56:01;;;;;;;4.15;2.80;;;16.60;84.40;;;;;;5112440;28;20019;-35
2023/09/23 10:58:31;;;;;;;4.60;2.58;;;16.60;84.30;;;;;;5112564;28;20028;-32
2023/09/23 11:00:57;;;;;;;6.55;3.10;;;16.70;84.20;;;;;;5112065;28;20050;-30
2023/09/23 11:03:23;;;;;;;5.20;2.70;;;16.70;83.60;;;;;;5111915;28;20028;-32
2023/09/23 11:05:49;;;;;;;3.90;2.42;;;16.80;83.70;;;;;;5112051;28;20054;-32
2023/09/23 11:08:16;;;;;;;5.63;2.60;;;16.90;83.50;;;;;;5112056;28;20507;-34
2023/09/23 11:10:44;;;;;;;4.30;2.40;;;17.10;83.10;;;;;;5112228;28;20476;-35
2023/09/23 11:13:11;;;;;;;7.65;2.90;;;17.20;82.90;;;;;;5112063;28;20477;-34
2023/09/23 11:15:43;;;;;;;4.63;2.33;;;17.20;82.60;;;;;;5112758;28;20022;-33
2023/09/23 11:18:16;;;;;;;10.73;2.88;;;17.30;82.50;;;;;;5112219;28;20023;-32
2023/09/23 11:20:46;;;;;;;5.93;2.25;;;17.30;82.30;;;;;;5111782;28;20127;-33
2023/09/23 11:23:13;;;;;;;4.38;2.30;;;17.20;82.20;;;;;;5112078;28;20508;-34
2023/09/23 11:25:44;;;;;;;6.65;2.40;;;17.20;82.10;;;;;;5111918;28;20489;-39
2023/09/23 11:28:21;;;;;;;3.15;2.22;;;17.00;82.10;;;;;;5111896;28;20443;-38
2023/09/23 11:30:47;;;;;;;4.45;2.35;;;17.00;82.60;;;;;;5111763;28;20107;-35
2023/09/23 11:33:13;;;;;;;4.05;2.60;;;16.90;82.80;;;;;;5111968;28;20024;-35
2023/09/23 11:35:43;;;;;;;5.40;2.30;;;16.80;82.90;;;;;;5111790;28;20050;-34
2023/09/23 11:38:12;;;;;;;6.45;2.47;;;16.70;83.20;;;;;;5111864;28;20024;-32
2023/09/23 11:40:38;;;;;;;5.07;2.30;;;16.60;83.30;;;;;;5111761;28;20028;-34
2023/09/23 11:43:04;;;;;;;3.80;2.20;;;16.60;83.50;;;;;;5111861;28;20024;-36
2023/09/23 11:45:32;;;;;;;2.72;2.25;;;16.50;83.80;;;;;;5111644;28;20043;-33
2023/09/23 11:47:59;;;;;;;3.35;2.30;;;16.50;84.00;;;;;;5111981;28;20084;-36
2023/09/23 11:50:25;;;;;;;4.22;2.47;;;16.50;84.30;;;;;;5111577;28;20441;-32
2023/09/23 11:52:52;;;;;;;5.18;2.40;;;16.40;84.50;;;;;;5111715;28;20028;-29
2023/09/23 11:55:18;;;;;;;3.42;2.40;;;16.30;84.70;;;;;;5111763;28;20031;-29
2023/09/23 11:57:44;;;;;;;3.47;2.50;;;16.30;85.10;;;;;;5111691;28;20022;-34
2023/09/23 12:00:10;;;;;;;4.20;2.58;;;16.30;85.30;;;;;;5111681;28;20027;-32
2023/09/23 12:02:42;;;;;;;4.32;2.50;;;16.40;85.50;;;;;;5111664;28;20099;-29
2023/09/23 12:05:12;;;;;;;7.30;2.70;;;16.50;85.50;;;;;;5113398;28;20043;-32
2023/09/23 12:07:38;;;;;;;8.38;3.55;;;16.60;85.40;;;;;;5115385;28;20081;-32
2023/09/23 12:10:06;;;;;;;5.05;2.65;;;16.60;85.50;;;;;;5115148;28;20023;-34
2023/09/23 12:12:32;;;;;;;6.53;2.58;;;16.60;85.50;;;;;;5115246;28;20034;-37
2023/09/23 12:14:58;;;;;;;3.47;2.40;;;16.60;85.60;;;;;;5115221;28;20408;-34
2023/09/23 12:17:24;;;;;;;4.43;2.47;;;16.60;85.60;;;;;;5115338;28;20020;-30
2023/09/23 12:19:50;;;;;;;3.97;2.30;;;16.70;85.70;;;;;;5114923;28;20420;-30
2023/09/23 12:22:15;;;;;;;2.65;2.17;;;16.70;85.70;;;;;;5115087;28;20019;-29
2023/09/23 12:24:42;;;;;;;3.97;2.17;;;16.80;85.60;;;;;;5114999;28;20015;-32
2023/09/23 12:27:08;;;;;;;4.07;2.05;;;16.90;85.50;;;;;;5096638;28;20030;-31
2023/09/23 12:29:34;;;;;;;2.83;1.85;;;17.10;85.40;;;;;;5114922;28;20392;-34
2023/09/23 12:32:00;;;;;;;4.80;1.70;;;17.20;85.10;;;;;;5115038;28;20024;-31
2023/09/23 12:34:26;;;;;;;5.68;1.50;;;17.30;84.70;;;;;;5096705;28;20439;-30
2023/09/23 12:36:51;;;;;;;5.65;1.95;;;17.40;84.40;;;;;;5114803;28;20053;-35
2023/09/23 12:39:17;;;;;;;3.60;1.80;;;17.40;84.20;;;;;;5114685;28;20019;-31
2023/09/23 12:41:43;;;;;;;1.65;1.30;;;17.50;83.90;;;;;;5114890;28;20058;-33
2023/09/23 12:44:09;;;;;;;4.15;1.50;;;17.60;83.30;;;;;;5114714;28;20426;-30